Pagina principale
METAR-TAF:

METAR-TAF

Aeroporti :

Iğdır, Turchia

latitudine: 39-58-36N, longitudine: 43-52-36E, altezza: 945 m

Osservazione

Il bollettino è stato emesso 2 ore e 18 minuti fa, alle 10:50 UTC
Vento 8 kt da est/nord-est, variando fra nord/nord-est e est
Temperature 33°C
Umidità 26%
Pressione 1011 hPa
Visibilità 10 km o più
Poco nuvoloso ad un'altezza di 4000 ft

METAR: LTCT 271050Z 07008KT 030V100 9999 FEW040 33/11 Q1011

Ora: 16:08 (13:08 UTC)

Previsione

Il bollettino è stato emesso 2 ore e 28 minuti fa, alle 10:40 UTC
Previsione valida dal 27 alle 12 UTC al 27 alle 21 UTC
Vento 9 kt da nord-est
Visibilità 10 km o più
Poco nuvoloso ad un'altezza di 4000 ft

TAF: LTCT 271040Z 2712/2721 05009KT 9999 FEW040

Osservazioni e previsioni meteorologiche di più di 4000 aeroporti (messaggi METAR e TAF).

Le stazioni disponibili sono rappresentate dai dischi gialli e rossi sulla carta.

Puntare il mouse per vedere il nome della stazione.

Clicca sopra per visualizzare le osservazioni e previsioni meteorologiche.

Per cambiare la mappa : fare clic sui pulsanti verdi con una croce nera per ingrandire, il pulsante verde con un trattino per diminuire, o sulla freccia verde per le mappe adiacenti.


METAR-TAF: